sensor_id;sensor_type;location;lat;lon;timestamp;pressure;altitude;pressure_sealevel;temperature;humidity
250;BME280;109;19.806;-70.704;2022-08-05T00:02:26;101546.28;;;25.80;66.62
250;BME280;109;19.806;-70.704;2022-08-05T00:04:53;101548.00;;;25.81;67.17
250;BME280;109;19.806;-70.704;2022-08-05T00:07:19;101548.44;;;25.72;66.63
250;BME280;109;19.806;-70.704;2022-08-05T00:09:45;101551.44;;;25.64;66.89
250;BME280;109;19.806;-70.704;2022-08-05T00:12:12;101559.97;;;25.74;66.79
250;BME280;109;19.806;-70.704;2022-08-05T00:14:38;101555.47;;;25.74;66.79
250;BME280;109;19.806;-70.704;2022-08-05T00:17:05;101558.38;;;25.70;66.68
250;BME280;109;19.806;-70.704;2022-08-05T00:19:31;101564.00;;;25.64;66.63
250;BME280;109;19.806;-70.704;2022-08-05T00:21:58;101564.72;;;25.67;67.16
250;BME280;109;19.806;-70.704;2022-08-05T00:24:24;101564.72;;;25.67;67.02
250;BME280;109;19.806;-70.704;2022-08-05T00:26:51;101561.97;;;25.69;67.17
250;BME280;109;19.806;-70.704;2022-08-05T00:29:19;101567.91;;;25.57;66.88
250;BME280;109;19.806;-70.704;2022-08-05T00:31:46;101575.94;;;25.57;66.99
250;BME280;109;19.806;-70.704;2022-08-05T00:34:12;101589.53;;;25.52;67.19
250;BME280;109;19.806;-70.704;2022-08-05T00:36:40;101584.53;;;25.44;66.98
250;BME280;109;19.806;-70.704;2022-08-05T00:39:06;101585.59;;;25.61;67.16
250;BME280;109;19.806;-70.704;2022-08-05T00:41:34;101604.06;;;25.67;67.14
250;BME280;109;19.806;-70.704;2022-08-05T00:44:01;101605.06;;;25.64;66.88
250;BME280;109;19.806;-70.704;2022-08-05T00:46:28;101603.13;;;25.68;66.48
250;BME280;109;19.806;-70.704;2022-08-05T00:48:54;101605.41;;;25.77;66.61
250;BME280;109;19.806;-70.704;2022-08-05T00:51:21;101606.19;;;25.79;66.78
250;BME280;109;19.806;-70.704;2022-08-05T00:53:49;101606.13;;;25.80;66.42
250;BME280;109;19.806;-70.704;2022-08-05T00:56:16;101606.63;;;25.70;66.36
250;BME280;109;19.806;-70.704;2022-08-05T00:58:43;101616.34;;;25.72;66.02
250;BME280;109;19.806;-70.704;2022-08-05T01:01:10;101621.53;;;25.75;65.98
250;BME280;109;19.806;-70.704;2022-08-05T01:03:38;101618.66;;;25.80;66.26
250;BME280;109;19.806;-70.704;2022-08-05T01:06:05;101617.75;;;25.81;66.14
250;BME280;109;19.806;-70.704;2022-08-05T01:08:32;101619.22;;;25.88;65.75
250;BME280;109;19.806;-70.704;2022-08-05T01:16:07;101623.03;;;25.83;64.98
250;BME280;109;19.806;-70.704;2022-08-05T01:18:41;101629.41;;;25.80;65.12
250;BME280;109;19.806;-70.704;2022-08-05T01:29:18;101650.28;;;25.94;64.66
250;BME280;109;19.806;-70.704;2022-08-05T01:31:50;101658.19;;;25.97;64.43
250;BME280;109;19.806;-70.704;2022-08-05T01:34:21;101651.41;;;25.88;64.70
250;BME280;109;19.806;-70.704;2022-08-05T01:36:53;101653.81;;;25.94;64.51
250;BME280;109;19.806;-70.704;2022-08-05T01:39:28;101651.16;;;25.94;64.66
250;BME280;109;19.806;-70.704;2022-08-05T01:41:58;101640.69;;;25.88;64.53
250;BME280;109;19.806;-70.704;2022-08-05T01:44:33;101644.41;;;25.86;64.42
250;BME280;109;19.806;-70.704;2022-08-05T01:47:01;101650.63;;;25.86;64.55
250;BME280;109;19.806;-70.704;2022-08-05T01:49:35;101651.84;;;25.77;65.16
250;BME280;109;19.806;-70.704;2022-08-05T01:52:05;101655.19;;;25.84;65.13
250;BME280;109;19.806;-70.704;2022-08-05T01:54:44;101658.63;;;25.88;65.14
250;BME280;109;19.806;-70.704;2022-08-05T01:57:27;101661.44;;;25.83;64.42
250;BME280;109;19.806;-70.704;2022-08-05T02:00:02;101655.63;;;25.73;64.63
250;BME280;109;19.806;-70.704;2022-08-05T02:02:31;101651.28;;;25.71;64.27
250;BME280;109;19.806;-70.704;2022-08-05T02:05:06;101648.66;;;25.69;64.42
250;BME280;109;19.806;-70.704;2022-08-05T02:07:40;101645.03;;;25.70;64.46
250;BME280;109;19.806;-70.704;2022-08-05T02:10:08;101648.59;;;25.71;64.25
250;BME280;109;19.806;-70.704;2022-08-05T02:12:48;101655.28;;;25.81;64.33
250;BME280;109;19.806;-70.704;2022-08-05T02:15:45;101656.34;;;25.77;64.47
250;BME280;109;19.806;-70.704;2022-08-05T02:18:43;101650.03;;;25.78;64.58
250;BME280;109;19.806;-70.704;2022-08-05T02:21:21;101647.66;;;25.72;64.64
250;BME280;109;19.806;-70.704;2022-08-05T02:24:05;101654.75;;;25.73;64.40
250;BME280;109;19.806;-70.704;2022-08-05T02:26:48;101651.41;;;25.68;64.32
250;BME280;109;19.806;-70.704;2022-08-05T02:29:23;101654.75;;;25.73;64.57
250;BME280;109;19.806;-70.704;2022-08-05T02:32:12;101647.91;;;25.66;64.09
250;BME280;109;19.806;-70.704;2022-08-05T02:34:54;101651.53;;;25.65;64.60
250;BME280;109;19.806;-70.704;2022-08-05T02:37:22;101648.91;;;25.63;64.18
250;BME280;109;19.806;-70.704;2022-08-05T02:40:02;101655.47;;;25.56;64.43
250;BME280;109;19.806;-70.704;2022-08-05T02:42:31;101664.13;;;25.63;64.14
250;BME280;109;19.806;-70.704;2022-08-05T02:45:20;101654.94;;;25.48;64.99
250;BME280;109;19.806;-70.704;2022-08-05T02:48:02;101664.00;;;25.45;64.89
250;BME280;109;19.806;-70.704;2022-08-05T02:50:29;101658.16;;;25.56;64.38
250;BME280;109;19.806;-70.704;2022-08-05T02:53:09;101647.78;;;25.49;64.45
250;BME280;109;19.806;-70.704;2022-08-05T02:55:35;101658.00;;;25.39;64.62
250;BME280;109;19.806;-70.704;2022-08-05T02:58:17;101656.25;;;25.38;64.77
250;BME280;109;19.806;-70.704;2022-08-05T03:00:46;101660.63;;;25.40;64.99
250;BME280;109;19.806;-70.704;2022-08-05T03:03:27;101650.78;;;25.41;64.56
250;BME280;109;19.806;-70.704;2022-08-05T03:05:55;101660.97;;;25.33;64.68
250;BME280;109;19.806;-70.704;2022-08-05T03:08:37;101648.50;;;25.32;64.84
250;BME280;109;19.806;-70.704;2022-08-05T03:11:03;101653.72;;;25.35;64.88
250;BME280;109;19.806;-70.704;2022-08-05T03:13:54;101653.06;;;25.28;65.27
250;BME280;109;19.806;-70.704;2022-08-05T03:16:20;101648.59;;;25.29;64.77
250;BME280;109;19.806;-70.704;2022-08-05T03:19:00;101647.78;;;25.27;64.67
250;BME280;109;19.806;-70.704;2022-08-05T03:21:26;101646.91;;;25.26;65.14
250;BME280;109;19.806;-70.704;2022-08-05T03:24:14;101647.28;;;25.17;65.09
250;BME280;109;19.806;-70.704;2022-08-05T03:26:48;101650.72;;;25.21;65.32
250;BME280;109;19.806;-70.704;2022-08-05T03:29:34;101632.84;;;25.21;65.05
250;BME280;109;19.806;-70.704;2022-08-05T03:32:14;101620.16;;;25.25;64.86
250;BME280;109;19.806;-70.704;2022-08-05T03:34:56;101642.31;;;25.30;65.25
250;BME280;109;19.806;-70.704;2022-08-05T03:37:22;101638.84;;;25.26;64.70
250;BME280;109;19.806;-70.704;2022-08-05T03:40:03;101643.28;;;25.27;64.64
250;BME280;109;19.806;-70.704;2022-08-05T03:42:40;101650.03;;;25.16;64.99
250;BME280;109;19.806;-70.704;2022-08-05T03:45:20;101643.03;;;25.11;65.32
250;BME280;109;19.806;-70.704;2022-08-05T03:48:00;101641.81;;;25.20;65.16
250;BME280;109;19.806;-70.704;2022-08-05T03:50:35;101639.84;;;25.24;65.12
250;BME280;109;19.806;-70.704;2022-08-05T03:53:36;101634.06;;;25.13;65.00
250;BME280;109;19.806;-70.704;2022-08-05T03:56:27;101635.75;;;25.15;65.09
250;BME280;109;19.806;-70.704;2022-08-05T03:59:23;101623.88;;;25.22;65.35
250;BME280;109;19.806;-70.704;2022-08-05T04:01:59;101615.59;;;25.06;64.83
250;BME280;109;19.806;-70.704;2022-08-05T04:04:41;101621.56;;;25.13;65.36
250;BME280;109;19.806;-70.704;2022-08-05T04:07:08;101614.50;;;25.10;65.25
250;BME280;109;19.806;-70.704;2022-08-05T04:09:49;101611.72;;;25.14;65.06
250;BME280;109;19.806;-70.704;2022-08-05T04:12:15;101613.78;;;25.07;65.31
250;BME280;109;19.806;-70.704;2022-08-05T04:15:03;101607.88;;;24.99;65.06
250;BME280;109;19.806;-70.704;2022-08-05T04:17:37;101610.59;;;24.97;65.25
250;BME280;109;19.806;-70.704;2022-08-05T04:20:19;101603.19;;;25.04;65.30
250;BME280;109;19.806;-70.704;2022-08-05T04:22:59;101604.94;;;25.05;65.34
250;BME280;109;19.806;-70.704;2022-08-05T04:25:25;101599.41;;;25.09;65.25
250;BME280;109;19.806;-70.704;2022-08-05T04:28:05;101594.06;;;24.88;65.40
250;BME280;109;19.806;-70.704;2022-08-05T04:30:31;101596.59;;;24.91;65.27
250;BME280;109;19.806;-70.704;2022-08-05T04:33:18;101599.78;;;25.00;65.38
250;BME280;109;19.806;-70.704;2022-08-05T04:35:52;101614.84;;;25.03;65.27
250;BME280;109;19.806;-70.704;2022-08-05T04:38:32;101617.66;;;25.00;65.40
250;BME280;109;19.806;-70.704;2022-08-05T04:40:58;101601.50;;;25.01;64.92
250;BME280;109;19.806;-70.704;2022-08-05T04:43:38;101612.22;;;25.01;64.92
250;BME280;109;19.806;-70.704;2022-08-05T04:46:05;101604.00;;;25.06;64.74
250;BME280;109;19.806;-70.704;2022-08-05T04:48:45;101610.50;;;24.79;64.94
250;BME280;109;19.806;-70.704;2022-08-05T04:51:11;101612.25;;;24.80;64.78
250;BME280;109;19.806;-70.704;2022-08-05T04:53:51;101611.56;;;24.74;64.92
250;BME280;109;19.806;-70.704;2022-08-05T04:56:17;101605.03;;;24.82;65.08
250;BME280;109;19.806;-70.704;2022-08-05T04:59:04;101607.25;;;24.92;64.98
250;BME280;109;19.806;-70.704;2022-08-05T05:01:37;101597.72;;;24.85;64.73
250;BME280;109;19.806;-70.704;2022-08-05T05:04:18;101597.66;;;24.87;65.16
250;BME280;109;19.806;-70.704;2022-08-05T05:06:44;101597.53;;;24.90;64.80
250;BME280;109;19.806;-70.704;2022-08-05T05:09:24;101604.09;;;24.83;64.98
250;BME280;109;19.806;-70.704;2022-08-05T05:11:50;101591.00;;;24.75;64.93
250;BME280;109;19.806;-70.704;2022-08-05T05:14:30;101584.78;;;24.74;64.88
250;BME280;109;19.806;-70.704;2022-08-05T05:16:56;101584.94;;;24.70;64.70
250;BME280;109;19.806;-70.704;2022-08-05T05:19:37;101580.88;;;24.60;64.55
250;BME280;109;19.806;-70.704;2022-08-05T05:22:05;101578.03;;;24.64;64.39
250;BME280;109;19.806;-70.704;2022-08-05T05:24:45;101562.50;;;24.72;64.30
250;BME280;109;19.806;-70.704;2022-08-05T05:27:11;101571.41;;;24.73;64.34
250;BME280;109;19.806;-70.704;2022-08-05T05:29:57;101562.66;;;24.69;64.28
250;BME280;109;19.806;-70.704;2022-08-05T05:32:38;101562.31;;;24.79;64.51
250;BME280;109;19.806;-70.704;2022-08-05T05:35:04;101559.69;;;24.77;64.50
250;BME280;109;19.806;-70.704;2022-08-05T05:37:52;101564.97;;;24.79;64.41
250;BME280;109;19.806;-70.704;2022-08-05T05:40:27;101558.75;;;24.78;64.60
250;BME280;109;19.806;-70.704;2022-08-05T05:43:07;101558.00;;;24.74;64.81
250;BME280;109;19.806;-70.704;2022-08-05T05:45:33;101553.47;;;24.77;64.75
250;BME280;109;19.806;-70.704;2022-08-05T05:48:13;101545.66;;;24.70;64.60
250;BME280;109;19.806;-70.704;2022-08-05T05:50:39;101549.09;;;24.74;64.67
250;BME280;109;19.806;-70.704;2022-08-05T05:53:20;101548.22;;;24.73;64.52
250;BME280;109;19.806;-70.704;2022-08-05T05:55:46;101542.03;;;24.71;64.56
250;BME280;109;19.806;-70.704;2022-08-05T05:58:26;101543.69;;;24.75;64.08
250;BME280;109;19.806;-70.704;2022-08-05T06:01:00;101546.31;;;24.77;64.24
250;BME280;109;19.806;-70.704;2022-08-05T06:03:40;101552.59;;;24.76;64.39
250;BME280;109;19.806;-70.704;2022-08-05T06:06:07;101548.06;;;24.78;64.34
250;BME280;109;19.806;-70.704;2022-08-05T06:08:48;101546.78;;;24.87;63.94
250;BME280;109;19.806;-70.704;2022-08-05T06:11:14;101549.47;;;24.87;64.14
250;BME280;109;19.806;-70.704;2022-08-05T06:13:54;101552.00;;;24.90;63.96
250;BME280;109;19.806;-70.704;2022-08-05T06:16:20;101541.31;;;24.90;63.94
250;BME280;109;19.806;-70.704;2022-08-05T06:19:08;101545.72;;;24.91;64.11
250;BME280;109;19.806;-70.704;2022-08-05T06:21:41;101534.22;;;24.89;63.88
250;BME280;109;19.806;-70.704;2022-08-05T06:24:22;101532.53;;;24.86;63.96
250;BME280;109;19.806;-70.704;2022-08-05T06:26:48;101529.66;;;24.91;63.94
250;BME280;109;19.806;-70.704;2022-08-05T06:29:34;101525.00;;;24.96;63.81
250;BME280;109;19.806;-70.704;2022-08-05T06:32:14;101520.56;;;24.95;63.71
250;BME280;109;19.806;-70.704;2022-08-05T06:34:54;101512.66;;;24.92;64.04
250;BME280;109;19.806;-70.704;2022-08-05T06:37:22;101514.34;;;24.94;63.97
250;BME280;109;19.806;-70.704;2022-08-05T06:40:03;101507.88;;;24.78;64.11
250;BME280;109;19.806;-70.704;2022-08-05T06:42:44;101505.91;;;24.83;64.15
250;BME280;109;19.806;-70.704;2022-08-05T06:45:10;101499.53;;;24.86;64.27
250;BME280;109;19.806;-70.704;2022-08-05T06:47:50;101504.75;;;24.89;64.33
250;BME280;109;19.806;-70.704;2022-08-05T06:50:16;101510.16;;;24.87;64.16
250;BME280;109;19.806;-70.704;2022-08-05T06:52:58;101502.59;;;24.77;64.31
250;BME280;109;19.806;-70.704;2022-08-05T06:55:24;101505.97;;;24.82;64.24
250;BME280;109;19.806;-70.704;2022-08-05T06:58:05;101511.50;;;24.77;64.28
250;BME280;109;19.806;-70.704;2022-08-05T07:00:31;101514.25;;;24.75;64.20
250;BME280;109;19.806;-70.704;2022-08-05T07:03:18;101515.97;;;24.77;64.11
250;BME280;109;19.806;-70.704;2022-08-05T07:05:51;101515.97;;;24.77;64.08
250;BME280;109;19.806;-70.704;2022-08-05T07:08:31;101517.09;;;24.71;64.30
250;BME280;109;19.806;-70.704;2022-08-05T07:10:57;101507.16;;;24.73;64.50
250;BME280;109;19.806;-70.704;2022-08-05T07:13:38;101509.81;;;24.74;64.32
250;BME280;109;19.806;-70.704;2022-08-05T07:16:29;101509.06;;;24.71;64.45
250;BME280;109;19.806;-70.704;2022-08-05T07:19:22;101508.00;;;24.75;64.62
250;BME280;109;19.806;-70.704;2022-08-05T07:21:49;101508.97;;;24.72;64.65
250;BME280;109;19.806;-70.704;2022-08-05T07:24:29;101506.56;;;24.66;64.73
250;BME280;109;19.806;-70.704;2022-08-05T07:26:55;101514.31;;;24.72;64.39
250;BME280;109;19.806;-70.704;2022-08-05T07:29:42;101502.91;;;24.69;64.37
250;BME280;109;19.806;-70.704;2022-08-05T07:32:22;101498.66;;;24.63;64.63
250;BME280;109;19.806;-70.704;2022-08-05T07:35:07;101497.72;;;24.64;64.49
250;BME280;109;19.806;-70.704;2022-08-05T07:37:47;101496.66;;;24.68;64.47
250;BME280;109;19.806;-70.704;2022-08-05T07:40:13;101497.72;;;24.64;64.77
250;BME280;109;19.806;-70.704;2022-08-05T07:42:53;101493.13;;;24.68;64.66
250;BME280;109;19.806;-70.704;2022-08-05T07:45:26;101500.16;;;24.70;64.72
250;BME280;109;19.806;-70.704;2022-08-05T07:48:06;101491.06;;;24.74;64.47
250;BME280;109;19.806;-70.704;2022-08-05T07:50:32;101490.63;;;24.63;64.63
250;BME280;109;19.806;-70.704;2022-08-05T07:53:12;101490.53;;;24.45;65.11
250;BME280;109;19.806;-70.704;2022-08-05T07:55:38;101489.44;;;24.49;64.86
250;BME280;109;19.806;-70.704;2022-08-05T07:58:18;101486.59;;;24.53;64.84
250;BME280;109;19.806;-70.704;2022-08-05T08:00:45;101492.75;;;24.55;64.75
250;BME280;109;19.806;-70.704;2022-08-05T08:03:26;101491.06;;;24.53;64.50
250;BME280;109;19.806;-70.704;2022-08-05T08:05:52;101483.75;;;24.58;64.21
250;BME280;109;19.806;-70.704;2022-08-05T08:08:32;101485.53;;;24.57;64.08
250;BME280;109;19.806;-70.704;2022-08-05T08:10:58;101487.47;;;24.54;63.54
250;BME280;109;19.806;-70.704;2022-08-05T08:13:39;101487.25;;;24.58;63.72
250;BME280;109;19.806;-70.704;2022-08-05T08:16:06;101485.44;;;24.59;63.59
250;BME280;109;19.806;-70.704;2022-08-05T08:18:52;101491.56;;;24.62;63.62
250;BME280;109;19.806;-70.704;2022-08-05T08:21:26;101496.09;;;24.60;63.54
250;BME280;109;19.806;-70.704;2022-08-05T08:24:06;101488.44;;;24.73;63.55
250;BME280;109;19.806;-70.704;2022-08-05T08:26:33;101488.28;;;24.78;63.20
250;BME280;109;19.806;-70.704;2022-08-05T08:29:18;101488.41;;;24.74;63.10
250;BME280;109;19.806;-70.704;2022-08-05T08:31:58;101492.81;;;24.75;63.15
250;BME280;109;19.806;-70.704;2022-08-05T08:34:38;101489.34;;;24.73;63.25
250;BME280;109;19.806;-70.704;2022-08-05T08:37:04;101491.56;;;24.62;63.37
250;BME280;109;19.806;-70.704;2022-08-05T08:39:44;101492.38;;;24.64;63.56
250;BME280;109;19.806;-70.704;2022-08-05T08:42:10;101494.28;;;24.61;63.57
250;BME280;109;19.806;-70.704;2022-08-05T08:44:55;101498.72;;;24.62;63.74
250;BME280;109;19.806;-70.704;2022-08-05T08:47:35;101487.13;;;24.61;63.48
250;BME280;109;19.806;-70.704;2022-08-05T08:50:03;101491.50;;;24.64;63.47
250;BME280;109;19.806;-70.704;2022-08-05T08:52:52;101490.56;;;24.65;63.33
250;BME280;109;19.806;-70.704;2022-08-05T08:55:25;101503.75;;;24.48;64.05
250;BME280;109;19.806;-70.704;2022-08-05T08:58:05;101499.56;;;24.42;64.22
250;BME280;109;19.806;-70.704;2022-08-05T09:00:32;101493.41;;;24.60;64.37
250;BME280;109;19.806;-70.704;2022-08-05T09:03:13;101496.16;;;24.59;64.27
250;BME280;109;19.806;-70.704;2022-08-05T09:05:47;101498.19;;;24.54;64.70
250;BME280;109;19.806;-70.704;2022-08-05T09:08:28;101493.06;;;24.48;65.06
250;BME280;109;19.806;-70.704;2022-08-05T09:10:54;101495.75;;;24.48;65.13
250;BME280;109;19.806;-70.704;2022-08-05T09:13:35;101485.53;;;24.57;65.21
250;BME280;109;19.806;-70.704;2022-08-05T09:16:02;101490.22;;;24.52;64.93
250;BME280;109;19.806;-70.704;2022-08-05T09:18:43;101492.06;;;24.50;64.91
250;BME280;109;19.806;-70.704;2022-08-05T09:21:09;101490.59;;;24.43;65.08
250;BME280;109;19.806;-70.704;2022-08-05T09:24:10;101497.41;;;24.50;64.93
250;BME280;109;19.806;-70.704;2022-08-05T09:26:49;101491.31;;;24.47;65.05
250;BME280;109;19.806;-70.704;2022-08-05T09:29:41;101486.59;;;24.53;64.84
250;BME280;109;19.806;-70.704;2022-08-05T09:32:35;101489.28;;;24.53;65.08
250;BME280;109;19.806;-70.704;2022-08-05T09:35:16;101479.22;;;24.58;65.06
250;BME280;109;19.806;-70.704;2022-08-05T09:37:56;101477.53;;;24.57;64.68
250;BME280;109;19.806;-70.704;2022-08-05T09:40:36;101489.94;;;24.58;65.06
250;BME280;109;19.806;-70.704;2022-08-05T09:43:30;101481.91;;;24.58;64.34
250;BME280;109;19.806;-70.704;2022-08-05T09:46:05;101487.66;;;24.49;64.53
250;BME280;109;19.806;-70.704;2022-08-05T09:48:45;101484.38;;;24.43;64.19
250;BME280;109;19.806;-70.704;2022-08-05T09:51:11;101488.47;;;24.51;64.04
250;BME280;109;19.806;-70.704;2022-08-05T09:53:52;101484.03;;;24.50;63.67
250;BME280;109;19.806;-70.704;2022-08-05T09:56:27;101486.13;;;24.44;63.74
250;BME280;109;19.806;-70.704;2022-08-05T09:59:12;101487.75;;;24.46;63.83
250;BME280;109;19.806;-70.704;2022-08-05T10:01:46;101491.69;;;24.37;63.74
250;BME280;109;19.806;-70.704;2022-08-05T10:04:34;101496.28;;;24.34;63.31
250;BME280;109;19.806;-70.704;2022-08-05T10:07:08;101497.94;;;24.38;63.49
250;BME280;109;19.806;-70.704;2022-08-05T10:09:55;101504.75;;;24.45;63.30
250;BME280;109;19.806;-70.704;2022-08-05T10:12:47;101499.97;;;24.53;63.13
250;BME280;109;19.806;-70.704;2022-08-05T10:15:24;101499.81;;;24.58;63.49
250;BME280;109;19.806;-70.704;2022-08-05T10:18:16;101510.41;;;24.59;63.35
250;BME280;109;19.806;-70.704;2022-08-05T10:21:03;101512.03;;;24.63;63.03
250;BME280;109;19.806;-70.704;2022-08-05T10:23:44;101512.44;;;24.54;63.28
250;BME280;109;19.806;-70.704;2022-08-05T10:26:11;101518.81;;;24.50;63.26
250;BME280;109;19.806;-70.704;2022-08-05T10:28:51;101524.94;;;24.54;63.21
250;BME280;109;19.806;-70.704;2022-08-05T10:31:17;101519.19;;;24.63;63.09
250;BME280;109;19.806;-70.704;2022-08-05T10:33:57;101512.22;;;24.59;62.98
250;BME280;109;19.806;-70.704;2022-08-05T10:36:23;101523.56;;;24.65;62.84
250;BME280;109;19.806;-70.704;2022-08-05T10:39:32;101527.97;;;24.66;62.92
250;BME280;109;19.806;-70.704;2022-08-05T10:42:10;101539.50;;;24.68;63.15
250;BME280;109;19.806;-70.704;2022-08-05T10:44:44;101541.44;;;24.65;63.21
250;BME280;109;19.806;-70.704;2022-08-05T10:47:12;101540.50;;;24.66;63.10
250;BME280;109;19.806;-70.704;2022-08-05T10:50:02;101543.00;;;24.70;62.98
250;BME280;109;19.806;-70.704;2022-08-05T10:52:46;101537.75;;;24.67;63.23
250;BME280;109;19.806;-70.704;2022-08-05T10:55:19;101539.34;;;24.71;63.35
250;BME280;109;19.806;-70.704;2022-08-05T10:57:45;101534.84;;;24.73;63.11
250;BME280;109;19.806;-70.704;2022-08-05T11:05:31;101543.63;;;24.77;63.05
250;BME280;109;19.806;-70.704;2022-08-05T11:08:00;101542.03;;;24.71;62.80
250;BME280;109;19.806;-70.704;2022-08-05T11:10:31;101546.44;;;24.72;62.95
250;BME280;109;19.806;-70.704;2022-08-05T11:12:59;101559.84;;;24.72;62.89
250;BME280;109;19.806;-70.704;2022-08-05T11:15:31;101568.88;;;24.70;61.67
250;BME280;109;19.806;-70.704;2022-08-05T11:20:51;101573.25;;;24.94;61.01
250;BME280;109;19.806;-70.704;2022-08-05T11:23:37;101578.16;;;25.05;59.78
250;BME280;109;19.806;-70.704;2022-08-05T11:33:32;101588.75;;;25.08;60.24
250;BME280;109;19.806;-70.704;2022-08-05T11:36:00;101577.50;;;25.20;59.72
250;BME280;109;19.806;-70.704;2022-08-05T11:41:28;101580.63;;;25.52;59.42
250;BME280;109;19.806;-70.704;2022-08-05T11:48:56;101598.06;;;25.62;60.35
250;BME280;109;19.806;-70.704;2022-08-05T11:51:25;101591.41;;;25.50;60.21
250;BME280;109;19.806;-70.704;2022-08-05T11:53:55;101596.19;;;25.43;60.30
250;BME280;109;19.806;-70.704;2022-08-05T11:56:22;101587.88;;;25.28;61.40
250;BME280;109;19.806;-70.704;2022-08-05T11:58:50;101605.03;;;25.24;61.00
250;BME280;109;19.806;-70.704;2022-08-05T12:01:20;101615.31;;;25.13;63.50
250;BME280;109;19.806;-70.704;2022-08-05T12:03:52;101621.97;;;24.82;64.91
250;BME280;109;19.806;-70.704;2022-08-05T12:06:22;101630.47;;;24.70;66.01
250;BME280;109;19.806;-70.704;2022-08-05T12:08:57;101630.25;;;24.53;66.53
250;BME280;109;19.806;-70.704;2022-08-05T12:11:29;101632.03;;;24.52;66.63
250;BME280;109;19.806;-70.704;2022-08-05T12:14:01;101630.53;;;24.22;67.18
250;BME280;109;19.806;-70.704;2022-08-05T12:16:34;101619.41;;;24.09;67.48
250;BME280;109;19.806;-70.704;2022-08-05T12:19:01;101636.66;;;24.00;67.58
250;BME280;109;19.806;-70.704;2022-08-05T12:21:41;101635.94;;;23.95;68.14
250;BME280;109;19.806;-70.704;2022-08-05T12:24:19;101629.06;;;24.13;68.30
250;BME280;109;19.806;-70.704;2022-08-05T12:26:51;101613.19;;;24.79;67.83
250;BME280;109;19.806;-70.704;2022-08-05T12:29:19;101613.34;;;25.18;67.29
250;BME280;109;19.806;-70.704;2022-08-05T12:31:51;101612.06;;;25.26;66.99
250;BME280;109;19.806;-70.704;2022-08-05T12:34:20;101613.19;;;25.63;66.38
250;BME280;109;19.806;-70.704;2022-08-05T12:36:50;101607.81;;;25.83;66.10
250;BME280;109;19.806;-70.704;2022-08-05T12:39:18;101615.06;;;25.81;65.77
250;BME280;109;19.806;-70.704;2022-08-05T12:41:44;101608.09;;;25.97;64.96
250;BME280;109;19.806;-70.704;2022-08-05T12:44:13;101611.66;;;25.98;64.71
250;BME280;109;19.806;-70.704;2022-08-05T12:46:41;101606.06;;;25.82;64.52
250;BME280;109;19.806;-70.704;2022-08-05T12:49:14;101614.34;;;25.57;64.37
250;BME280;109;19.806;-70.704;2022-08-05T12:54:20;101659.44;;;25.04;65.00
250;BME280;109;19.806;-70.704;2022-08-05T12:56:49;101663.63;;;24.66;65.44
250;BME280;109;19.806;-70.704;2022-08-05T12:59:21;101666.13;;;24.47;66.34
250;BME280;109;19.806;-70.704;2022-08-05T13:01:57;101653.56;;;24.49;66.18
250;BME280;109;19.806;-70.704;2022-08-05T13:04:30;101656.81;;;24.34;65.51
250;BME280;109;19.806;-70.704;2022-08-05T13:07:00;101644.97;;;24.41;65.66
250;BME280;109;19.806;-70.704;2022-08-05T13:09:28;101641.88;;;24.75;65.07
250;BME280;109;19.806;-70.704;2022-08-05T13:12:03;101639.69;;;24.85;64.78
250;BME280;109;19.806;-70.704;2022-08-05T13:14:42;101635.50;;;24.99;64.55
250;BME280;109;19.806;-70.704;2022-08-05T13:17:15;101641.81;;;25.20;63.28
250;BME280;109;19.806;-70.704;2022-08-05T13:20:06;101638.94;;;25.47;63.68
250;BME280;109;19.806;-70.704;2022-08-05T13:22:38;101643.41;;;25.46;62.87
250;BME280;109;19.806;-70.704;2022-08-05T13:25:07;101640.34;;;25.96;62.48
250;BME280;109;19.806;-70.704;2022-08-05T13:27:38;101639.41;;;26.36;62.02
250;BME280;109;19.806;-70.704;2022-08-05T13:30:07;101640.88;;;26.62;61.86
250;BME280;109;19.806;-70.704;2022-08-05T13:32:34;101640.63;;;26.85;61.16
250;BME280;109;19.806;-70.704;2022-08-05T13:35:00;101638.56;;;27.09;60.26
250;BME280;109;19.806;-70.704;2022-08-05T13:37:27;101631.13;;;27.50;60.52
250;BME280;109;19.806;-70.704;2022-08-05T13:39:53;101634.69;;;27.68;60.19
250;BME280;109;19.806;-70.704;2022-08-05T13:42:21;101628.97;;;27.74;59.00
250;BME280;109;19.806;-70.704;2022-08-05T13:44:52;101631.81;;;27.71;59.62
250;BME280;109;19.806;-70.704;2022-08-05T13:47:19;101636.16;;;27.90;59.12
250;BME280;109;19.806;-70.704;2022-08-05T13:49:45;101637.47;;;28.16;58.87
250;BME280;109;19.806;-70.704;2022-08-05T13:52:14;101639.53;;;28.11;57.75
250;BME280;109;19.806;-70.704;2022-08-05T13:54:41;101643.03;;;27.96;57.11
250;BME280;109;19.806;-70.704;2022-08-05T13:57:08;101635.09;;;28.10;57.51
250;BME280;109;19.806;-70.704;2022-08-05T13:59:36;101638.84;;;28.23;57.37
250;BME280;109;19.806;-70.704;2022-08-05T14:02:03;101647.72;;;28.58;57.39
250;BME280;109;19.806;-70.704;2022-08-05T14:04:39;101631.25;;;28.94;56.76
250;BME280;109;19.806;-70.704;2022-08-05T14:07:43;101635.00;;;28.92;56.74
250;BME280;109;19.806;-70.704;2022-08-05T14:10:16;101630.94;;;28.53;56.87
250;BME280;109;19.806;-70.704;2022-08-05T14:12:43;101635.88;;;28.12;58.20
250;BME280;109;19.806;-70.704;2022-08-05T14:15:11;101639.22;;;27.83;58.83
250;BME280;109;19.806;-70.704;2022-08-05T14:17:38;101653.66;;;27.47;59.65
250;BME280;109;19.806;-70.704;2022-08-05T14:20:06;101662.66;;;27.29;60.47
250;BME280;109;19.806;-70.704;2022-08-05T14:22:33;101658.41;;;26.88;62.24
250;BME280;109;19.806;-70.704;2022-08-05T14:25:03;101658.75;;;26.80;62.49
250;BME280;109;19.806;-70.704;2022-08-05T14:27:30;101651.91;;;26.74;63.14
250;BME280;109;19.806;-70.704;2022-08-05T14:29:56;101661.19;;;26.67;62.81